Terminal Aerodrome Forecast
Issued by NWS Corpus Christi, TX

Current Version | Previous Version | Text Only | Print | Product List | Glossary On
Versions: 1 2 3 4 5 6 7 8 9 10 11 12 13 14 15 16 17 18 19 20 21 22 23 24 25
000
FTUS44 KCRP 261126
TAFVCT
TAF
KVCT 261126Z 2612/2712 17003KT 4SM BR OVC010
      TEMPO 2612/2614 2SM BR BKN009 OVC013
     FM261500 17005KT P6SM SCT015 BKN022
     FM262100 14009KT P6SM BKN025
     FM270400 14012G18KT 4SM BR OVC007=

USA.gov is the U.S. government's official web portal to all federal, state and local government web resources and services.